Time,TemperatureF,DewpointF,PressureIn,WindDirection,WindDirectionDegrees,WindSpeedMPH,WindSpeedGustMPH,Humidity,HourlyPrecipIn,Conditions,Clouds,dailyrainin,SoftwareType,DateUTC
2013-01-20 00:04:00,48.9,17.2,30.18,NNE,26,4.0,4.0,28,0.00,,,0.00,Wunderground v.1.15,2013-01-20 08:04:00,
2013-01-20 00:10:00,49.3,15.8,30.19,NNE,25,2.0,3.0,26,0.00,,,0.00,Wunderground v.1.15,2013-01-20 08:10:00,
2013-01-20 00:15:00,49.5,15.1,30.19,NNW,346,2.0,3.0,25,0.00,,,0.00,Wunderground v.1.15,2013-01-20 08:15:00,
2013-01-20 00:21:00,48.9,16.3,30.18,North,353,1.0,2.0,27,0.00,,,0.00,Wunderground v.1.15,2013-01-20 08:21:00,
2013-01-20 00:26:00,48.4,16.7,30.18,NNW,327,2.0,3.0,28,0.00,,,0.00,Wunderground v.1.15,2013-01-20 08:26:00,
2013-01-20 00:31:00,47.7,16.9,30.18,NW,315,1.0,2.0,29,0.00,,,0.00,Wunderground v.1.15,2013-01-20 08:31:00,
2013-01-20 00:37:00,47.6,17.6,30.18,NE,38,2.0,3.0,30,0.00,,,0.00,Wunderground v.1.15,2013-01-20 08:37:00,
2013-01-20 00:42:00,47.0,17.9,30.18,East,91,0.0,2.0,31,0.00,,,0.00,Wunderground v.1.15,2013-01-20 08:42:00,
2013-01-20 00:47:00,46.6,18.3,30.18,WNW,290,1.0,2.0,32,0.00,,,0.00,Wunderground v.1.15,2013-01-20 08:47:00,
2013-01-20 00:53:00,46.2,18.6,30.18,ESE,108,1.0,2.0,33,0.00,,,0.00,Wunderground v.1.15,2013-01-20 08:53:00,
2013-01-20 00:58:00,46.0,18.5,30.19,ESE,113,2.0,2.0,33,0.00,,,0.00,Wunderground v.1.15,2013-01-20 08:58:00,
2013-01-20 01:04:00,45.5,17.3,30.19,SW,228,0.0,2.0,32,0.00,,,0.00,Wunderground v.1.15,2013-01-20 09:04:00,
2013-01-20 01:09:00,45.3,17.8,30.19,WNW,302,0.0,2.0,33,0.00,,,0.00,Wunderground v.1.15,2013-01-20 09:09:00,
2013-01-20 01:14:00,45.8,17.6,30.19,SE,129,0.0,2.0,32,0.00,,,0.00,Wunderground v.1.15,2013-01-20 09:14:00,
2013-01-20 01:19:00,46.7,17.6,30.19,ENE,65,0.0,2.0,31,0.00,,,0.00,Wunderground v.1.15,2013-01-20 09:19:00,
2013-01-20 01:25:00,46.1,18.0,30.19,NNE,29,3.0,5.0,32,0.00,,,0.00,weatherlink.com 1.10,2013-01-20 09:25:00,
2013-01-20 01:30:00,46.7,17.6,30.19,SE,127,1.0,2.0,31,0.00,,,0.00,Wunderground v.1.15,2013-01-20 09:30:00,
2013-01-20 01:36:00,46.1,17.8,30.19,ENE,61,3.0,6.0,32,0.00,,,0.00,Wunderground v.1.15,2013-01-20 09:36:00,
2013-01-20 01:41:00,46.7,16.0,30.18,ENE,61,0.0,7.0,29,0.00,,,0.00,weatherlink.com 1.10,2013-01-20 09:41:00,
2013-01-20 01:46:00,47.9,17.1,30.18,ENE,61,0.0,2.0,29,0.00,,,0.00,Wunderground v.1.15,2013-01-20 09:46:00,
2013-01-20 01:52:00,47.6,16.9,30.18,East,84,1.0,1.0,29,0.00,,,0.00,Wunderground v.1.15,2013-01-20 09:52:00,
2013-01-20 01:57:00,46.6,17.5,30.18,ENE,77,0.0,1.0,31,0.00,,,0.00,Wunderground v.1.15,2013-01-20 09:57:00,
2013-01-20 02:02:00,45.5,18.0,30.18,NW,312,0.0,3.0,33,0.00,,,0.00,Wunderground v.1.15,2013-01-20 10:02:00,
2013-01-20 02:07:00,45.1,17.7,30.18,NW,314,1.0,3.0,33,0.00,,,0.00,Wunderground v.1.15,2013-01-20 10:07:00,
2013-01-20 02:12:00,45.1,17.7,30.18,WNW,290,2.0,3.0,33,0.00,,,0.00,Wunderground v.1.15,2013-01-20 10:12:00,
2013-01-20 02:17:00,45.1,17.7,30.18,NE,56,0.0,8.0,33,0.00,,,0.00,Wunderground v.1.15,2013-01-20 10:17:00,
2013-01-20 02:22:00,44.9,17.5,30.18,East,82,0.0,5.0,33,0.00,,,0.00,Wunderground v.1.15,2013-01-20 10:22:00,
2013-01-20 02:27:00,45.3,17.8,30.17,East,89,0.0,5.0,33,0.00,,,0.00,Wunderground v.1.15,2013-01-20 10:27:00,
2013-01-20 02:32:00,45.0,16.9,30.17,ENE,67,4.0,4.0,32,0.00,,,0.00,Wunderground v.1.15,2013-01-20 10:32:00,
2013-01-20 02:37:00,44.7,16.6,30.17,NE,53,1.0,4.0,32,0.00,,,0.00,Wunderground v.1.15,2013-01-20 10:37:00,
2013-01-20 02:42:00,44.8,18.1,30.17,ENE,61,0.0,2.0,34,0.00,,,0.00,Wunderground v.1.15,2013-01-20 10:42:00,
2013-01-20 02:47:00,43.7,18.5,30.17,NE,47,0.0,2.0,36,0.00,,,0.00,Wunderground v.1.15,2013-01-20 10:47:00,
2013-01-20 02:52:00,43.3,18.1,30.17,NE,47,0.0,0.0,36,0.00,,,0.00,Wunderground v.1.15,2013-01-20 10:52:00,
2013-01-20 02:57:00,43.1,17.9,30.17,North,360,0.0,1.0,36,0.00,,,0.00,Wunderground v.1.15,2013-01-20 10:57:00,
2013-01-20 03:02:00,42.7,18.2,30.17,North,360,0.0,1.0,37,0.00,,,0.00,Wunderground v.1.15,2013-01-20 11:02:00,
2013-01-20 03:07:00,42.4,17.9,30.16,North,353,0.0,1.0,37,0.00,,,0.00,Wunderground v.1.15,2013-01-20 11:07:00,
2013-01-20 03:12:00,42.1,18.3,30.16,North,353,0.0,1.0,38,0.00,,,0.00,Wunderground v.1.15,2013-01-20 11:12:00,
2013-01-20 03:17:00,42.5,18.0,30.16,NNW,333,0.0,1.0,37,0.00,,,0.00,Wunderground v.1.15,2013-01-20 11:17:00,
2013-01-20 03:22:00,42.2,19.6,30.16,NW,305,0.0,2.0,40,0.00,,,0.00,Wunderground v.1.15,2013-01-20 11:22:00,
2013-01-20 03:27:00,41.7,19.7,30.17,NW,314,0.0,2.0,41,0.00,,,0.00,Wunderground v.1.15,2013-01-20 11:27:00,
2013-01-20 03:32:00,41.7,19.1,30.16,NW,313,0.0,1.0,40,0.00,,,0.00,Wunderground v.1.15,2013-01-20 11:32:00,
2013-01-20 03:37:00,41.4,19.4,30.16,NW,314,0.0,1.0,41,0.00,,,0.00,Wunderground v.1.15,2013-01-20 11:37:00,
2013-01-20 03:42:00,41.6,19.0,30.16,NW,314,0.0,0.0,40,0.00,,,0.00,Wunderground v.1.15,2013-01-20 11:42:00,
2013-01-20 03:47:00,42.0,18.8,30.16,NW,314,1.0,1.0,39,0.00,,,0.00,Wunderground v.1.15,2013-01-20 11:47:00,
2013-01-20 03:53:00,41.9,18.7,30.16,NW,314,0.0,1.0,39,0.00,,,0.00,Wunderground v.1.15,2013-01-20 11:53:00,
2013-01-20 03:58:00,41.8,19.2,30.16,NW,314,0.0,1.0,40,0.00,,,0.00,Wunderground v.1.15,2013-01-20 11:58:00,
2013-01-20 04:03:00,41.8,19.2,30.16,NW,314,0.0,0.0,40,0.00,,,0.00,Wunderground v.1.15,2013-01-20 12:03:00,
2013-01-20 04:08:00,41.8,19.8,30.16,NW,314,0.0,0.0,41,0.00,,,0.00,Wunderground v.1.15,2013-01-20 12:08:00,
2013-01-20 04:13:00,41.0,20.2,30.16,NW,314,0.0,0.0,43,0.00,,,0.00,Wunderground v.1.15,2013-01-20 12:13:00,
2013-01-20 04:18:00,40.2,19.5,30.16,NW,314,0.0,0.0,43,0.00,,,0.00,Wunderground v.1.15,2013-01-20 12:18:00,
2013-01-20 04:23:00,39.9,19.7,30.16,NE,53,0.0,1.0,44,0.00,,,0.00,Wunderground v.1.15,2013-01-20 12:23:00,
2013-01-20 04:28:00,40.0,19.3,30.16,NE,36,2.0,2.0,43,0.00,,,0.00,Wunderground v.1.15,2013-01-20 12:28:00,
2013-01-20 04:33:00,41.3,18.8,30.16,North,359,1.0,3.0,40,0.00,,,0.00,Wunderground v.1.15,2013-01-20 12:33:00,
2013-01-20 04:38:00,41.9,18.1,30.16,North,352,1.0,3.0,38,0.00,,,0.00,Wunderground v.1.15,2013-01-20 12:38:00,
2013-01-20 04:43:00,43.2,18.6,30.16,East,91,4.0,4.0,37,0.00,,,0.00,Wunderground v.1.15,2013-01-20 12:43:00,
2013-01-20 04:48:00,42.4,17.9,30.16,North,9,2.0,4.0,37,0.00,,,0.00,Wunderground v.1.15,2013-01-20 12:48:00,
2013-01-20 04:53:00,42.1,18.9,30.16,North,351,0.0,3.0,39,0.00,,,0.00,Wunderground v.1.15,2013-01-20 12:53:00,
2013-01-20 04:58:00,41.7,18.5,30.16,North,359,2.0,3.0,39,0.00,,,0.00,Wunderground v.1.15,2013-01-20 12:58:00,
2013-01-20 05:03:00,41.9,18.7,30.16,NNW,333,1.0,3.0,39,0.00,,,0.00,Wunderground v.1.15,2013-01-20 13:03:00,
2013-01-20 05:08:00,41.7,19.1,30.16,WNW,300,1.0,3.0,40,0.00,,,0.00,Wunderground v.1.15,2013-01-20 13:08:00,
2013-01-20 05:13:00,41.4,18.9,30.16,WNW,300,0.0,1.0,40,0.00,,,0.00,Wunderground v.1.15,2013-01-20 13:13:00,
2013-01-20 05:18:00,41.4,18.9,30.16,WNW,300,0.0,1.0,40,0.00,,,0.00,Wunderground v.1.15,2013-01-20 13:18:00,
2013-01-20 05:23:00,40.7,18.8,30.16,SSE,165,0.0,3.0,41,0.00,,,0.00,Wunderground v.1.15,2013-01-20 13:23:00,
2013-01-20 05:28:00,39.6,18.9,30.16,ESE,120,0.0,4.0,43,0.00,,,0.00,Wunderground v.1.15,2013-01-20 13:28:00,
2013-01-20 05:33:00,38.9,18.8,30.16,ESE,120,0.0,1.0,44,0.00,,,0.00,Wunderground v.1.15,2013-01-20 13:33:00,
2013-01-20 05:38:00,38.9,18.8,30.16,ESE,120,0.0,1.0,44,0.00,,,0.00,Wunderground v.1.15,2013-01-20 13:38:00,
2013-01-20 05:43:00,39.2,19.1,30.16,ESE,119,0.0,1.0,44,0.00,,,0.00,Wunderground v.1.15,2013-01-20 13:43:00,
2013-01-20 05:48:00,39.9,18.6,30.17,NNE,27,0.0,1.0,42,0.00,,,0.00,Wunderground v.1.15,2013-01-20 13:48:00,
2013-01-20 05:53:00,40.0,18.7,30.16,NNE,27,0.0,1.0,42,0.00,,,0.00,Wunderground v.1.15,2013-01-20 13:53:00,
2013-01-20 05:58:00,39.3,18.6,30.17,East,80,2.0,2.0,43,0.00,,,0.00,Wunderground v.1.15,2013-01-20 13:58:00,
2013-01-20 06:03:00,40.1,18.8,30.17,ENE,71,0.0,2.0,42,0.00,,,0.00,Wunderground v.1.15,2013-01-20 14:03:00,
2013-01-20 06:08:00,39.7,19.0,30.17,East,98,2.0,2.0,43,0.00,,,0.00,Wunderground v.1.15,2013-01-20 14:08:00,
2013-01-20 06:13:00,40.3,17.9,30.17,ENE,78,0.0,1.0,40,0.00,,,0.00,Wunderground v.1.15,2013-01-20 14:13:00,
2013-01-20 06:18:00,41.3,17.6,30.17,North,354,0.0,1.0,38,0.00,,,0.00,Wunderground v.1.15,2013-01-20 14:18:00,
2013-01-20 06:23:00,42.0,18.2,30.17,North,11,1.0,2.0,38,0.00,,,0.00,Wunderground v.1.15,2013-01-20 14:23:00,
2013-01-20 06:28:00,41.6,17.8,30.17,NNE,30,1.0,2.0,38,0.00,,,0.00,Wunderground v.1.15,2013-01-20 14:28:00,
2013-01-20 06:34:00,42.9,16.4,30.17,North,359,2.0,2.0,34,0.00,,,0.00,Wunderground v.1.15,2013-01-20 14:34:00,
2013-01-20 06:38:00,44.1,16.8,30.16,NNE,13,0.0,2.0,33,0.00,,,0.00,Wunderground v.1.15,2013-01-20 14:38:00,
2013-01-20 06:43:00,42.2,18.4,30.17,SE,125,0.0,1.0,38,0.00,,,0.00,Wunderground v.1.15,2013-01-20 14:43:00,
2013-01-20 06:49:00,41.3,17.6,30.16,North,356,3.0,4.0,38,0.00,,,0.00,Wunderground v.1.15,2013-01-20 14:49:00,
2013-01-20 06:54:00,45.1,15.5,30.16,NNE,32,0.0,3.0,30,0.00,,,0.00,Wunderground v.1.15,2013-01-20 14:54:00,
2013-01-20 06:59:00,44.6,17.2,30.16,North,350,1.0,3.0,33,0.00,,,0.00,Wunderground v.1.15,2013-01-20 14:59:00,
2013-01-20 07:04:00,43.1,18.6,30.17,East,87,0.0,2.0,37,0.00,,,0.00,Wunderground v.1.15,2013-01-20 15:04:00,
2013-01-20 07:09:00,42.1,18.9,30.17,East,88,0.0,2.0,39,0.00,,,0.00,Wunderground v.1.15,2013-01-20 15:09:00,
2013-01-20 07:14:00,42.1,18.9,30.17,East,88,0.0,0.0,39,0.00,,,0.00,Wunderground v.1.15,2013-01-20 15:14:00,
2013-01-20 07:19:00,41.9,19.3,30.17,East,88,0.0,0.0,40,0.00,,,0.00,Wunderground v.1.15,2013-01-20 15:19:00,
2013-01-20 07:24:00,42.3,17.8,30.17,North,353,1.0,2.0,37,0.00,,,0.00,Wunderground v.1.15,2013-01-20 15:24:00,
2013-01-20 07:29:00,42.6,19.3,30.17,North,351,0.0,2.0,39,0.00,,,0.00,Wunderground v.1.15,2013-01-20 15:29:00,
2013-01-20 07:34:00,42.2,19.6,30.17,NW,323,2.0,2.0,40,0.00,,,0.00,Wunderground v.1.15,2013-01-20 15:34:00,
2013-01-20 07:39:00,43.1,20.4,30.17,WNW,300,1.0,3.0,40,0.00,,,0.00,Wunderground v.1.15,2013-01-20 15:39:00,
2013-01-20 07:44:00,43.4,21.2,30.17,NW,309,0.0,3.0,41,0.00,,,0.00,Wunderground v.1.15,2013-01-20 15:44:00,
2013-01-20 07:49:00,44.5,21.0,30.17,NW,309,0.0,3.0,39,0.00,,,0.00,Wunderground v.1.15,2013-01-20 15:49:00,
2013-01-20 07:54:00,44.7,21.2,30.17,ESE,117,3.0,3.0,39,0.00,,,0.00,Wunderground v.1.15,2013-01-20 15:54:00,
2013-01-20 07:59:00,44.8,21.9,30.17,WSW,253,0.0,4.0,40,0.00,,,0.00,Wunderground v.1.15,2013-01-20 15:59:00,
2013-01-20 08:04:00,45.2,22.3,30.17,WNW,286,0.0,4.0,40,0.00,,,0.00,Wunderground v.1.15,2013-01-20 16:04:00,
2013-01-20 08:09:00,46.2,21.3,30.17,West,267,1.0,5.0,37,0.00,,,0.00,Wunderground v.1.15,2013-01-20 16:09:00,
2013-01-20 08:14:00,47.7,22.7,30.17,SE,131,1.0,3.0,37,0.00,,,0.00,Wunderground v.1.15,2013-01-20 16:14:00,
2013-01-20 08:19:00,48.7,22.9,30.17,SW,235,0.0,3.0,36,0.00,,,0.00,Wunderground v.1.15,2013-01-20 16:19:00,
2013-01-20 08:24:00,49.8,23.2,30.18,SW,235,0.0,3.0,35,0.00,,,0.00,Wunderground v.1.15,2013-01-20 16:24:00,
2013-01-20 08:29:00,51.0,22.1,30.18,ESE,113,0.0,3.0,32,0.00,,,0.00,Wunderground v.1.15,2013-01-20 16:29:00,
2013-01-20 08:35:00,52.4,22.6,30.18,ESE,113,0.0,1.0,31,0.00,,,0.00,Wunderground v.1.15,2013-01-20 16:35:00,
2013-01-20 08:39:00,53.3,23.4,30.18,ESE,113,0.0,1.0,31,0.00,,,0.00,Wunderground v.1.15,2013-01-20 16:39:00,
2013-01-20 08:44:00,55.0,24.1,30.18,ESE,113,0.0,0.0,30,0.00,,,0.00,Wunderground v.1.15,2013-01-20 16:44:00,
2013-01-20 08:49:00,56.3,24.4,30.18,ESE,114,0.0,1.0,29,0.00,,,0.00,Wunderground v.1.15,2013-01-20 16:49:00,
2013-01-20 08:55:00,57.8,24.9,30.18,ESE,114,0.0,0.0,28,0.00,,,0.00,Wunderground v.1.15,2013-01-20 16:55:00,
2013-01-20 09:00:00,58.3,25.3,30.18,WSW,249,0.0,1.0,28,0.00,,,0.00,Wunderground v.1.15,2013-01-20 17:00:00,
2013-01-20 09:05:00,58.4,23.6,30.18,WNW,291,0.0,1.0,26,0.00,,,0.00,Wunderground v.1.15,2013-01-20 17:05:00,
2013-01-20 09:10:00,59.5,22.6,30.19,ESE,112,1.0,1.0,24,0.00,,,0.00,Wunderground v.1.15,2013-01-20 17:10:00,
2013-01-20 09:15:00,60.6,21.5,30.19,ESE,115,0.0,2.0,22,0.00,,,0.00,Wunderground v.1.15,2013-01-20 17:15:00,
2013-01-20 09:20:00,62.5,23.1,30.19,SSE,162,0.0,1.0,22,0.00,,,0.00,Wunderground v.1.15,2013-01-20 17:20:00,
2013-01-20 09:25:00,62.5,20.8,30.19,WSW,251,0.0,2.0,20,0.00,,,0.00,Wunderground v.1.15,2013-01-20 17:25:00,
2013-01-20 09:30:00,62.4,19.5,30.18,WNW,290,0.0,1.0,19,0.00,,,0.00,Wunderground v.1.15,2013-01-20 17:30:00,
2013-01-20 09:35:00,62.7,18.5,30.19,WNW,285,1.0,2.0,18,0.00,,,0.00,Wunderground v.1.15,2013-01-20 17:35:00,
2013-01-20 09:40:00,62.8,17.3,30.19,WNW,290,1.0,2.0,17,0.00,,,0.00,Wunderground v.1.15,2013-01-20 17:40:00,
2013-01-20 09:45:00,63.4,11.6,30.19,West,278,4.0,5.0,13,0.00,,,0.00,Wunderground v.1.15,2013-01-20 17:45:00,
2013-01-20 09:50:00,64.1,13.9,30.19,NW,319,0.0,2.0,14,0.00,,,0.00,Wunderground v.1.15,2013-01-20 17:50:00,
2013-01-20 09:55:00,64.4,10.6,30.19,West,280,1.0,3.0,12,0.00,,,0.00,Wunderground v.1.15,2013-01-20 17:55:00,
2013-01-20 10:00:00,64.9,11.0,30.19,NW,315,1.0,2.0,12,0.00,,,0.00,Wunderground v.1.15,2013-01-20 18:00:00,
2013-01-20 10:05:00,65.3,11.3,30.18,WSW,238,2.0,2.0,12,0.00,,,0.00,Wunderground v.1.15,2013-01-20 18:05:00,
2013-01-20 10:10:00,66.0,11.9,30.19,WNW,302,2.0,3.0,12,0.00,,,0.00,Wunderground v.1.15,2013-01-20 18:10:00,
2013-01-20 10:15:00,66.1,13.8,30.18,WNW,284,5.0,5.0,13,0.00,,,0.00,Wunderground v.1.15,2013-01-20 18:15:00,
2013-01-20 10:20:00,66.2,13.8,30.18,WNW,300,2.0,3.0,13,0.00,,,0.00,Wunderground v.1.15,2013-01-20 18:20:00,
2013-01-20 10:25:00,66.6,14.2,30.18,NW,311,2.0,5.0,13,0.00,,,0.00,Wunderground v.1.15,2013-01-20 18:25:00,
2013-01-20 10:30:00,66.9,12.6,30.18,NW,319,1.0,2.0,12,0.00,,,0.00,Wunderground v.1.15,2013-01-20 18:30:00,
2013-01-20 10:35:00,67.3,10.9,30.18,NW,325,1.0,3.0,11,0.00,,,0.00,Wunderground v.1.15,2013-01-20 18:35:00,
2013-01-20 10:40:00,67.7,11.2,30.18,NW,321,2.0,3.0,11,0.00,,,0.00,Wunderground v.1.15,2013-01-20 18:40:00,
2013-01-20 10:45:00,68.1,11.5,30.17,NW,316,1.0,5.0,11,0.00,,,0.00,Wunderground v.1.15,2013-01-20 18:45:00,
2013-01-20 10:50:00,68.6,11.9,30.17,WNW,288,4.0,5.0,11,0.00,,,0.00,Wunderground v.1.15,2013-01-20 18:50:00,
2013-01-20 10:55:00,68.7,12.0,30.17,WNW,302,4.0,5.0,11,0.00,,,0.00,Wunderground v.1.15,2013-01-20 18:55:00,
2013-01-20 11:00:00,68.9,10.0,30.17,WSW,240,4.0,4.0,10,0.00,,,0.00,Wunderground v.1.15,2013-01-20 19:00:00,
2013-01-20 11:06:00,69.3,8.0,30.16,WNW,288,3.0,4.0,9,0.00,,,0.00,Wunderground v.1.15,2013-01-20 19:06:00,
2013-01-20 11:11:00,69.7,8.3,30.16,WSW,247,1.0,2.0,9,0.00,,,0.00,Wunderground v.1.15,2013-01-20 19:11:00,
2013-01-20 11:16:00,69.7,8.3,30.16,SSW,197,1.0,6.0,9,0.00,,,0.00,Wunderground v.1.15,2013-01-20 19:16:00,
2013-01-20 11:21:00,70.1,8.6,30.15,NW,309,4.0,6.0,9,0.00,,,0.00,Wunderground v.1.15,2013-01-20 19:21:00,
2013-01-20 11:26:00,69.9,8.4,30.15,West,264,5.0,6.0,9,0.00,,,0.00,Wunderground v.1.15,2013-01-20 19:26:00,
2013-01-20 11:31:00,70.0,8.5,30.14,West,274,2.0,3.0,9,0.00,,,0.00,Wunderground v.1.15,2013-01-20 19:31:00,
2013-01-20 11:36:00,70.4,8.8,30.14,NW,322,3.0,5.0,9,0.00,,,0.00,Wunderground v.1.15,2013-01-20 19:36:00,
2013-01-20 11:41:00,70.5,6.3,30.14,NE,41,2.0,2.0,8,0.00,,,0.00,Wunderground v.1.15,2013-01-20 19:41:00,
2013-01-20 11:46:00,70.9,9.2,30.13,NNW,333,1.0,5.0,9,0.00,,,0.00,Wunderground v.1.15,2013-01-20 19:46:00,
2013-01-20 11:51:00,71.0,9.3,30.13,WNW,288,2.0,5.0,9,0.00,,,0.00,Wunderground v.1.15,2013-01-20 19:51:00,
2013-01-20 11:56:00,71.1,9.3,30.13,WNW,292,3.0,6.0,9,0.00,,,0.00,Wunderground v.1.15,2013-01-20 19:56:00,
2013-01-20 12:01:00,71.2,6.8,30.12,NW,321,0.0,5.0,8,0.00,,,0.00,Wunderground v.1.15,2013-01-20 20:01:00,
2013-01-20 12:06:00,71.5,7.0,30.12,WNW,300,5.0,7.0,8,0.00,,,0.00,Wunderground v.1.15,2013-01-20 20:06:00,
2013-01-20 12:11:00,71.3,6.9,30.12,WNW,295,4.0,6.0,8,0.00,,,0.00,Wunderground v.1.15,2013-01-20 20:11:00,
2013-01-20 12:16:00,71.9,7.3,30.11,NW,308,2.0,6.0,8,0.00,,,0.00,Wunderground v.1.15,2013-01-20 20:16:00,
2013-01-20 12:21:00,71.8,7.2,30.11,NW,307,2.0,6.0,8,0.00,,,0.00,Wunderground v.1.15,2013-01-20 20:21:00,
2013-01-20 12:26:00,71.8,7.2,30.10,NW,308,6.0,7.0,8,0.00,,,0.00,Wunderground v.1.15,2013-01-20 20:26:00,
2013-01-20 12:31:00,72.0,7.4,30.10,NW,305,2.0,5.0,8,0.00,,,0.00,Wunderground v.1.15,2013-01-20 20:31:00,
2013-01-20 12:36:00,72.1,7.5,30.10,WNW,300,5.0,7.0,8,0.00,,,0.00,Wunderground v.1.15,2013-01-20 20:36:00,
2013-01-20 12:41:00,72.4,10.3,30.10,NW,318,3.0,6.0,9,0.00,,,0.00,Wunderground v.1.15,2013-01-20 20:41:00,
2013-01-20 12:46:00,72.5,7.8,30.09,NE,52,1.0,6.0,8,0.00,,,0.00,Wunderground v.1.15,2013-01-20 20:46:00,
2013-01-20 12:51:00,72.7,7.9,30.09,NW,325,4.0,6.0,8,0.00,,,0.00,Wunderground v.1.15,2013-01-20 20:51:00,
2013-01-20 12:56:00,72.6,7.8,30.09,NW,321,3.0,7.0,8,0.00,,,0.00,Wunderground v.1.15,2013-01-20 20:56:00,
2013-01-20 13:01:00,72.8,8.0,30.08,WNW,302,4.0,6.0,8,0.00,,,0.00,Wunderground v.1.15,2013-01-20 21:01:00,
2013-01-20 13:06:00,72.8,8.0,30.08,West,281,2.0,6.0,8,0.00,,,0.00,Wunderground v.1.15,2013-01-20 21:06:00,
2013-01-20 13:11:00,72.6,7.8,30.08,East,96,0.0,3.0,8,0.00,,,0.00,Wunderground v.1.15,2013-01-20 21:11:00,
2013-01-20 13:17:00,73.1,8.2,30.08,West,280,5.0,7.0,8,0.00,,,0.00,Wunderground v.1.15,2013-01-20 21:17:00,
2013-01-20 13:22:00,73.0,10.8,30.07,NNW,329,5.0,8.0,9,0.00,,,0.00,Wunderground v.1.15,2013-01-20 21:22:00,
2013-01-20 13:27:00,72.9,8.1,30.07,NNW,340,1.0,8.0,8,0.00,,,0.00,Wunderground v.1.15,2013-01-20 21:27:00,
2013-01-20 13:32:00,73.3,8.4,30.07,WNW,300,4.0,6.0,8,0.00,,,0.00,Wunderground v.1.15,2013-01-20 21:32:00,
2013-01-20 13:37:00,73.3,8.4,30.07,NW,321,4.0,7.0,8,0.00,,,0.00,Wunderground v.1.15,2013-01-20 21:37:00,
2013-01-20 13:42:00,73.5,11.1,30.07,WNW,302,3.0,7.0,9,0.00,,,0.00,Wunderground v.1.15,2013-01-20 21:42:00,
2013-01-20 13:47:00,73.6,8.6,30.07,NW,326,5.0,8.0,8,0.00,,,0.00,Wunderground v.1.15,2013-01-20 21:47:00,
2013-01-20 13:52:00,73.5,8.5,30.07,NW,309,2.0,8.0,8,0.00,,,0.00,Wunderground v.1.15,2013-01-20 21:52:00,
2013-01-20 13:57:00,73.3,8.4,30.06,NW,311,5.0,8.0,8,0.00,,,0.00,Wunderground v.1.15,2013-01-20 21:57:00,
2013-01-20 14:02:00,73.3,11.0,30.06,NW,305,3.0,8.0,9,0.00,,,0.00,Wunderground v.1.15,2013-01-20 22:02:00,
2013-01-20 14:07:00,73.5,13.5,30.06,WNW,289,5.0,10.0,10,0.00,,,0.00,Wunderground v.1.15,2013-01-20 22:07:00,
2013-01-20 14:12:00,73.7,11.3,30.06,NW,316,5.0,8.0,9,0.00,,,0.00,Wunderground v.1.15,2013-01-20 22:12:00,
2013-01-20 14:17:00,73.9,11.4,30.06,NNW,338,4.0,8.0,9,0.00,,,0.00,Wunderground v.1.15,2013-01-20 22:17:00,
2013-01-20 14:22:00,73.8,11.4,30.06,NW,308,5.0,9.0,9,0.00,,,0.00,Wunderground v.1.15,2013-01-20 22:22:00,
2013-01-20 14:27:00,74.0,8.9,30.06,NW,321,3.0,9.0,8,0.00,,,0.00,Wunderground v.1.15,2013-01-20 22:27:00,
2013-01-20 14:32:00,73.9,8.8,30.06,NNW,333,4.0,7.0,8,0.00,,,0.00,Wunderground v.1.15,2013-01-20 22:32:00,
2013-01-20 14:37:00,73.8,11.4,30.06,NNW,327,5.0,7.0,9,0.00,,,0.00,Wunderground v.1.15,2013-01-20 22:37:00,
2013-01-20 14:42:00,73.8,11.0,30.06,NNW,334,9.0,9.0,9,0.00,,,0.00,weatherlink.com 1.10,2013-01-20 22:42:00,
2013-01-20 14:47:00,73.7,8.7,30.06,NNW,335,3.0,11.0,8,0.00,,,0.00,Wunderground v.1.15,2013-01-20 22:47:00,
2013-01-20 14:52:00,73.7,8.7,30.06,NW,311,6.0,7.0,8,0.00,,,0.00,Wunderground v.1.15,2013-01-20 22:52:00,
2013-01-20 14:57:00,73.4,8.4,30.05,NNW,328,7.0,10.0,8,0.00,,,0.00,Wunderground v.1.15,2013-01-20 22:57:00,
2013-01-20 15:02:00,73.3,11.0,30.05,NW,325,4.0,9.0,9,0.00,,,0.00,Wunderground v.1.15,2013-01-20 23:02:00,
2013-01-20 15:07:00,73.6,11.2,30.05,WNW,293,6.0,11.0,9,0.00,,,0.00,Wunderground v.1.15,2013-01-20 23:07:00,
2013-01-20 15:12:00,73.5,8.5,30.05,NNW,340,8.0,10.0,8,0.00,,,0.00,Wunderground v.1.15,2013-01-20 23:12:00,
2013-01-20 15:17:00,73.1,8.2,30.05,NW,321,6.0,11.0,8,0.00,,,0.00,Wunderground v.1.15,2013-01-20 23:17:00,
2013-01-20 15:22:00,72.9,10.7,30.06,North,352,3.0,9.0,9,0.00,,,0.00,Wunderground v.1.15,2013-01-20 23:22:00,
2013-01-20 15:27:00,72.9,10.7,30.05,North,351,8.0,9.0,9,0.00,,,0.00,Wunderground v.1.15,2013-01-20 23:27:00,
2013-01-20 15:32:00,72.8,10.6,30.05,North,5,3.0,9.0,9,0.00,,,0.00,Wunderground v.1.15,2013-01-20 23:32:00,
2013-01-20 15:37:00,72.8,10.6,30.05,NW,317,5.0,9.0,9,0.00,,,0.00,Wunderground v.1.15,2013-01-20 23:37:00,
2013-01-20 15:42:00,72.7,10.5,30.06,NNW,328,7.0,9.0,9,0.00,,,0.00,Wunderground v.1.15,2013-01-20 23:42:00,
2013-01-20 15:47:00,72.4,10.3,30.05,NNW,342,8.0,11.0,9,0.00,,,0.00,Wunderground v.1.15,2013-01-20 23:47:00,
2013-01-20 15:52:00,72.1,10.1,30.06,NW,315,5.0,12.0,9,0.00,,,0.00,Wunderground v.1.15,2013-01-20 23:52:00,
2013-01-20 15:58:00,71.9,9.9,30.06,NW,307,4.0,12.0,9,0.00,,,0.00,Wunderground v.1.15,2013-01-20 23:58:00,
2013-01-20 16:02:00,71.8,9.9,30.06,NNW,335,8.0,8.0,9,0.00,,,0.00,Wunderground v.1.15,2013-01-21 00:02:00,
2013-01-20 16:07:00,71.5,12.0,30.06,NW,319,3.0,11.0,10,0.00,,,0.00,Wunderground v.1.15,2013-01-21 00:07:00,
2013-01-20 16:12:00,71.5,9.6,30.06,NW,309,3.0,8.0,9,0.00,,,0.00,Wunderground v.1.15,2013-01-21 00:12:00,
2013-01-20 16:18:00,71.2,9.4,30.06,NNW,338,6.0,10.0,9,0.00,,,0.00,Wunderground v.1.15,2013-01-21 00:18:00,
2013-01-20 16:23:00,71.0,11.6,30.06,NNW,340,6.0,8.0,10,0.00,,,0.00,Wunderground v.1.15,2013-01-21 00:23:00,
2013-01-20 16:28:00,70.8,11.5,30.06,NNW,336,5.0,10.0,10,0.00,,,0.00,Wunderground v.1.15,2013-01-21 00:28:00,
2013-01-20 16:33:00,70.6,11.3,30.07,NNW,330,3.0,9.0,10,0.00,,,0.00,Wunderground v.1.15,2013-01-21 00:33:00,
2013-01-20 16:38:00,70.3,11.1,30.07,NW,326,4.0,9.0,10,0.00,,,0.00,Wunderground v.1.15,2013-01-21 00:38:00,
2013-01-20 16:43:00,70.0,10.9,30.07,NW,323,3.0,8.0,10,0.00,,,0.00,Wunderground v.1.15,2013-01-21 00:43:00,
2013-01-20 16:48:00,69.8,10.7,30.07,NNW,342,9.0,10.0,10,0.00,,,0.00,Wunderground v.1.15,2013-01-21 00:48:00,
2013-01-20 16:53:00,69.3,10.3,30.07,NNW,329,7.0,9.0,10,0.00,,,0.00,Wunderground v.1.15,2013-01-21 00:53:00,
2013-01-20 16:58:00,68.9,10.0,30.07,North,11,2.0,9.0,10,0.00,,,0.00,Wunderground v.1.15,2013-01-21 00:58:00,
2013-01-20 17:03:00,68.4,9.6,30.08,NNW,338,6.0,8.0,10,0.00,,,0.00,Wunderground v.1.15,2013-01-21 01:03:00,
2013-01-20 17:08:00,67.9,11.4,30.08,NNW,347,2.0,8.0,11,0.00,,,0.00,Wunderground v.1.15,2013-01-21 01:08:00,
2013-01-20 17:13:00,67.3,10.9,30.08,NNW,333,5.0,9.0,11,0.00,,,0.00,Wunderground v.1.15,2013-01-21 01:13:00,
2013-01-20 17:18:00,66.9,10.6,30.08,NE,50,2.0,9.0,11,0.00,,,0.00,Wunderground v.1.15,2013-01-21 01:18:00,
2013-01-20 17:23:00,66.3,12.1,30.08,NE,39,2.0,4.0,12,0.00,,,0.00,Wunderground v.1.15,2013-01-21 01:23:00,
2013-01-20 17:28:00,65.8,11.7,30.08,NNE,13,2.0,5.0,12,0.00,,,0.00,Wunderground v.1.15,2013-01-21 01:28:00,
2013-01-20 17:33:00,65.3,11.3,30.08,NNE,16,2.0,3.0,12,0.00,,,0.00,Wunderground v.1.15,2013-01-21 01:33:00,
2013-01-20 17:38:00,65.1,11.2,30.08,NE,44,3.0,9.0,12,0.00,,,0.00,Wunderground v.1.15,2013-01-21 01:38:00,
2013-01-20 17:43:00,65.0,11.1,30.09,NNE,25,2.0,4.0,12,0.00,,,0.00,Wunderground v.1.15,2013-01-21 01:43:00,
2013-01-20 17:48:00,64.6,10.8,30.09,NNW,342,3.0,5.0,12,0.00,,,0.00,Wunderground v.1.15,2013-01-21 01:48:00,
2013-01-20 17:53:00,64.5,10.7,30.09,NNW,336,1.0,6.0,12,0.00,,,0.00,Wunderground v.1.15,2013-01-21 01:53:00,
2013-01-20 17:58:00,64.3,10.5,30.09,NNE,30,3.0,6.0,12,0.00,,,0.00,Wunderground v.1.15,2013-01-21 01:58:00,
2013-01-20 18:03:00,64.3,10.5,30.09,NNW,348,2.0,9.0,12,0.00,,,0.00,Wunderground v.1.15,2013-01-21 02:03:00,
2013-01-20 18:08:00,64.2,10.5,30.09,NNW,347,3.0,9.0,12,0.00,,,0.00,Wunderground v.1.15,2013-01-21 02:08:00,
2013-01-20 18:13:00,64.3,8.6,30.10,NNW,333,1.0,6.0,11,0.00,,,0.00,Wunderground v.1.15,2013-01-21 02:13:00,
2013-01-20 18:18:00,63.8,10.1,30.09,NNE,23,0.0,6.0,12,0.00,,,0.00,Wunderground v.1.15,2013-01-21 02:18:00,
2013-01-20 18:23:00,63.2,9.7,30.10,NNE,23,1.0,3.0,12,0.00,,,0.00,Wunderground v.1.15,2013-01-21 02:23:00,
2013-01-20 18:28:00,62.8,9.4,30.10,NNW,331,1.0,3.0,12,0.00,,,0.00,Wunderground v.1.15,2013-01-21 02:28:00,
2013-01-20 18:33:00,62.6,11.0,30.10,North,352,2.0,3.0,13,0.00,,,0.00,Wunderground v.1.15,2013-01-21 02:33:00,
2013-01-20 18:38:00,62.4,10.8,30.10,NNW,340,1.0,4.0,13,0.00,,,0.00,Wunderground v.1.15,2013-01-21 02:38:00,
2013-01-20 18:43:00,62.3,9.0,30.10,NNE,13,2.0,4.0,12,0.00,,,0.00,Wunderground v.1.15,2013-01-21 02:43:00,
2013-01-20 18:48:00,62.2,8.9,30.10,NNW,333,4.0,5.0,12,0.00,,,0.00,Wunderground v.1.15,2013-01-21 02:48:00,
2013-01-20 18:53:00,62.3,9.0,30.10,North,351,3.0,8.0,12,0.00,,,0.00,Wunderground v.1.15,2013-01-21 02:53:00,
2013-01-20 18:58:00,62.4,9.0,30.11,NNW,333,2.0,8.0,12,0.00,,,0.00,Wunderground v.1.15,2013-01-21 02:58:00,
2013-01-20 19:03:00,62.2,8.9,30.11,NNW,345,2.0,6.0,12,0.00,,,0.00,Wunderground v.1.15,2013-01-21 03:03:00,
2013-01-20 19:08:00,62.0,8.7,30.11,NNW,335,2.0,6.0,12,0.00,,,0.00,Wunderground v.1.15,2013-01-21 03:08:00,
2013-01-20 19:13:00,61.9,8.6,30.11,NE,47,1.0,3.0,12,0.00,,,0.00,Wunderground v.1.15,2013-01-21 03:13:00,
2013-01-20 19:18:00,61.5,8.3,30.11,North,4,1.0,3.0,12,0.00,,,0.00,Wunderground v.1.15,2013-01-21 03:18:00,
2013-01-20 19:23:00,61.0,9.7,30.11,NNW,339,1.0,2.0,13,0.00,,,0.00,Wunderground v.1.15,2013-01-21 03:23:00,
2013-01-20 19:28:00,61.0,9.7,30.11,NNW,346,2.0,5.0,13,0.00,,,0.00,Wunderground v.1.15,2013-01-21 03:28:00,
2013-01-20 19:33:00,60.8,9.6,30.12,NNE,13,1.0,3.0,13,0.00,,,0.00,Wunderground v.1.15,2013-01-21 03:33:00,
2013-01-20 19:38:00,60.7,9.5,30.12,NE,44,0.0,3.0,13,0.00,,,0.00,Wunderground v.1.15,2013-01-21 03:38:00,
2013-01-20 19:43:00,60.6,9.4,30.12,NE,34,2.0,3.0,13,0.00,,,0.00,Wunderground v.1.15,2013-01-21 03:43:00,
2013-01-20 19:48:00,60.7,9.5,30.12,NE,38,3.0,4.0,13,0.00,,,0.00,Wunderground v.1.15,2013-01-21 03:48:00,
2013-01-20 19:53:00,60.5,9.3,30.12,NNE,19,2.0,4.0,13,0.00,,,0.00,Wunderground v.1.15,2013-01-21 03:53:00,
2013-01-20 19:58:00,59.9,10.5,30.12,NNE,19,1.0,4.0,14,0.00,,,0.00,Wunderground v.1.15,2013-01-21 03:58:00,
2013-01-20 20:03:00,59.3,10.0,30.12,North,7,1.0,3.0,14,0.00,,,0.00,Wunderground v.1.15,2013-01-21 04:03:00,
2013-01-20 20:08:00,58.8,9.6,30.12,North,6,0.0,3.0,14,0.00,,,0.00,Wunderground v.1.15,2013-01-21 04:08:00,
2013-01-20 20:14:00,58.3,10.8,30.12,NNW,338,1.0,2.0,15,0.00,,,0.00,Wunderground v.1.15,2013-01-21 04:14:00,
2013-01-20 20:19:00,58.1,10.6,30.12,North,5,1.0,3.0,15,0.00,,,0.00,Wunderground v.1.15,2013-01-21 04:19:00,
2013-01-20 20:24:00,57.7,10.3,30.12,NW,325,3.0,4.0,15,0.00,,,0.00,Wunderground v.1.15,2013-01-21 04:24:00,
2013-01-20 20:29:00,57.3,11.4,30.12,North,3,1.0,4.0,16,0.00,,,0.00,Wunderground v.1.15,2013-01-21 04:29:00,
2013-01-20 20:34:00,56.7,12.3,30.12,North,11,3.0,3.0,17,0.00,,,0.00,Wunderground v.1.15,2013-01-21 04:34:00,
2013-01-20 20:39:00,57.2,11.3,30.12,NNE,27,1.0,4.0,16,0.00,,,0.00,Wunderground v.1.15,2013-01-21 04:39:00,
2013-01-20 20:44:00,57.2,12.7,30.12,NNE,20,2.0,4.0,17,0.00,,,0.00,Wunderground v.1.15,2013-01-21 04:44:00,
2013-01-20 20:49:00,57.0,12.5,30.12,NNE,20,3.0,4.0,17,0.00,,,0.00,Wunderground v.1.15,2013-01-21 04:49:00,
2013-01-20 20:54:00,57.1,12.6,30.12,North,354,3.0,5.0,17,0.00,,,0.00,Wunderground v.1.15,2013-01-21 04:54:00,
2013-01-20 20:59:00,57.2,12.7,30.13,NNE,23,4.0,5.0,17,0.00,,,0.00,Wunderground v.1.15,2013-01-21 04:59:00,
2013-01-20 21:00:00,57.2,12.7,30.13,North,6,2.0,3.0,17,0.00,,,0.00,Wunderground v.1.15,2013-01-21 05:00:00,
2013-01-20 21:01:00,57.2,12.7,30.13,NNW,341,3.0,4.0,17,0.00,,,0.00,Wunderground v.1.15,2013-01-21 05:01:00,
2013-01-20 21:02:00,57.3,12.8,30.13,North,354,4.0,4.0,17,0.00,,,0.00,Wunderground v.1.15,2013-01-21 05:02:00,
2013-01-20 21:08:00,57.1,12.6,30.13,NNE,23,2.0,4.0,17,0.00,,,0.00,Wunderground v.1.15,2013-01-21 05:08:00,
2013-01-20 21:13:00,57.6,13.0,30.13,NNE,18,3.0,5.0,17,0.00,,,0.00,Wunderground v.1.15,2013-01-21 05:13:00,
2013-01-20 21:18:00,57.4,12.9,30.13,NE,44,2.0,5.0,17,0.00,,,0.00,Wunderground v.1.15,2013-01-21 05:18:00,
2013-01-20 21:23:00,56.7,13.6,30.13,NNE,30,0.0,2.0,18,0.00,,,0.00,Wunderground v.1.15,2013-01-21 05:23:00,
2013-01-20 21:28:00,55.9,14.2,30.13,NE,37,1.0,2.0,19,0.00,,,0.00,Wunderground v.1.15,2013-01-21 05:28:00,
2013-01-20 21:33:00,55.8,14.1,30.13,NE,36,0.0,3.0,19,0.00,,,0.00,Wunderground v.1.15,2013-01-21 05:33:00,
2013-01-20 21:38:00,55.4,13.8,30.13,NE,34,3.0,3.0,19,0.00,,,0.00,Wunderground v.1.15,2013-01-21 05:38:00,
2013-01-20 21:43:00,56.4,13.4,30.13,NNE,27,2.0,2.0,18,0.00,,,0.00,Wunderground v.1.15,2013-01-21 05:43:00,
2013-01-20 21:48:00,56.4,13.4,30.13,NNE,27,2.0,2.0,18,0.00,,,0.00,Wunderground v.1.15,2013-01-21 05:48:00,
2013-01-20 21:53:00,55.9,12.9,30.13,NNE,16,2.0,3.0,18,0.00,,,0.00,Wunderground v.1.15,2013-01-21 05:53:00,
2013-01-20 21:58:00,55.3,13.7,30.13,North,352,3.0,3.0,19,0.00,,,0.00,Wunderground v.1.15,2013-01-21 05:58:00,
2013-01-20 22:03:00,54.4,14.1,30.13,NNE,29,0.0,3.0,20,0.00,,,0.00,Wunderground v.1.15,2013-01-21 06:03:00,
2013-01-20 22:08:00,53.8,14.7,30.13,NNE,30,0.0,3.0,21,0.00,,,0.00,Wunderground v.1.15,2013-01-21 06:08:00,
2013-01-20 22:13:00,53.5,14.5,30.13,NE,34,0.0,1.0,21,0.00,,,0.00,Wunderground v.1.15,2013-01-21 06:13:00,
2013-01-20 22:18:00,53.0,14.0,30.13,North,5,1.0,2.0,21,0.00,,,0.00,Wunderground v.1.15,2013-01-21 06:18:00,
2013-01-20 22:23:00,53.0,15.1,30.13,WNW,296,1.0,1.0,22,0.00,,,0.00,Wunderground v.1.15,2013-01-21 06:23:00,
2013-01-20 22:28:00,51.8,15.1,30.13,ESE,107,0.0,1.0,23,0.00,,,0.00,Wunderground v.1.15,2013-01-21 06:28:00,
2013-01-20 22:33:00,51.8,15.1,30.13,ESE,105,1.0,2.0,23,0.00,,,0.00,Wunderground v.1.15,2013-01-21 06:33:00,
2013-01-20 22:38:00,50.8,16.2,30.13,ESE,106,0.0,2.0,25,0.00,,,0.00,Wunderground v.1.15,2013-01-21 06:38:00,
2013-01-20 22:43:00,49.8,17.1,30.13,ESE,105,0.0,0.0,27,0.00,,,0.00,Wunderground v.1.15,2013-01-21 06:43:00,
2013-01-20 22:48:00,49.3,15.8,30.13,SE,131,0.0,1.0,26,0.00,,,0.00,Wunderground v.1.15,2013-01-21 06:48:00,
2013-01-20 22:53:00,50.0,16.4,30.13,ENE,68,2.0,2.0,26,0.00,,,0.00,Wunderground v.1.15,2013-01-21 06:53:00,
2013-01-20 22:58:00,49.8,16.2,30.13,NNE,26,2.0,3.0,26,0.00,,,0.00,Wunderground v.1.15,2013-01-21 06:58:00,
2013-01-20 23:03:00,49.2,15.7,30.13,NNE,23,3.0,3.0,26,0.00,,,0.00,Wunderground v.1.15,2013-01-21 07:03:00,
2013-01-20 23:08:00,49.0,16.4,30.13,NNE,29,3.0,4.0,27,0.00,,,0.00,Wunderground v.1.15,2013-01-21 07:08:00,
2013-01-20 23:13:00,49.1,15.6,30.13,NNE,29,1.0,3.0,26,0.00,,,0.00,Wunderground v.1.15,2013-01-21 07:13:00,
2013-01-20 23:18:00,48.8,16.2,30.13,NE,36,0.0,3.0,27,0.00,,,0.00,Wunderground v.1.15,2013-01-21 07:18:00,
2013-01-20 23:23:00,48.4,15.9,30.13,ESE,108,0.0,2.0,27,0.00,,,0.00,Wunderground v.1.15,2013-01-21 07:23:00,
2013-01-20 23:28:00,48.1,16.5,30.13,ESE,108,0.0,2.0,28,0.00,,,0.00,Wunderground v.1.15,2013-01-21 07:28:00,
2013-01-20 23:33:00,48.4,15.9,30.13,NE,37,1.0,2.0,27,0.00,,,0.00,Wunderground v.1.15,2013-01-21 07:33:00,
2013-01-20 23:38:00,48.2,16.6,30.13,ESE,120,3.0,5.0,28,0.00,,,0.00,Wunderground v.1.15,2013-01-21 07:38:00,
2013-01-20 23:43:00,47.3,16.6,30.13,WSW,249,0.0,1.0,29,0.00,,,0.00,Wunderground v.1.15,2013-01-21 07:43:00,
2013-01-20 23:48:00,46.6,16.8,30.13,WSW,249,0.0,1.0,30,0.00,,,0.00,Wunderground v.1.15,2013-01-21 07:48:00,
2013-01-20 23:53:00,46.1,17.1,30.12,WSW,249,0.0,0.0,31,0.00,,,0.00,Wunderground v.1.15,2013-01-21 07:53:00,
2013-01-20 23:58:00,45.4,17.9,30.12,WSW,249,1.0,2.0,33,0.00,,,0.00,Wunderground v.1.15,2013-01-21 07:58:00,